Time;durP1;ratioP1;P1;durP2;ratioP2;P2;SDS_P1;SDS_P2;PMS_P1;PMS_P2;Temp;Humidity;BMP_temperature;BMP_pressure;BME280_temperature;BME280_humidity;BME280_pressure;Samples;Min_cycle;Max_cycle;Signal;HPM_P1;HPM_P2
2023/02/02 00:01:21;;;;;;;;;;;3.90;99.90;;;;;;5055062;28;19944;-70
2023/02/02 00:04:17;;;;;;;;;;;3.90;99.90;;;;;;5075065;28;19933;-70
2023/02/02 00:06:57;;;;;;;;;;;3.80;99.90;;;;;;5068332;28;19984;-71
2023/02/02 00:09:31;;;;;;;;;;;3.80;99.90;;;;;;5059259;28;19928;-71
2023/02/02 00:12:01;;;;;;;;;;;3.80;99.90;;;;;;5046718;28;19928;-71
2023/02/02 00:14:32;;;;;;;;;;;3.80;99.90;;;;;;5044549;28;19928;-71
2023/02/02 00:17:03;;;;;;;;;;;3.80;99.90;;;;;;5041535;28;19970;-72
2023/02/02 00:19:33;;;;;;;;;;;3.90;99.90;;;;;;5077647;28;19932;-72
2023/02/02 00:22:11;;;;;;;;;;;3.80;99.90;;;;;;5060501;28;19935;-72
2023/02/02 00:24:53;;;;;;;;;;;3.80;99.90;;;;;;5067620;28;20628;-71
2023/02/02 00:27:22;;;;;;;;;;;3.80;99.90;;;;;;5063011;28;20136;-70
2023/02/02 00:29:52;;;;;;;;;;;3.80;99.90;;;;;;5049806;28;19973;-70
2023/02/02 00:32:21;;;;;;;;;;;3.80;99.90;;;;;;5035360;28;19924;-71
2023/02/02 00:34:55;;;;;;;;;;;3.80;99.90;;;;;;5057748;28;19939;-72
2023/02/02 00:37:24;;;;;;;;;;;3.90;99.90;;;;;;5033401;28;20436;-72
2023/02/02 00:39:54;;;;;;;;;;;3.90;99.90;;;;;;5051636;28;19931;-71
2023/02/02 00:42:22;;;;;;;;;;;3.80;99.90;;;;;;5065267;28;20537;-70
2023/02/02 00:47:39;;;;;;;;;;;3.80;99.90;;;;;;5053730;28;19929;-71
2023/02/02 00:50:11;;;;;;;;;;;3.70;99.90;;;;;;5056273;28;19974;-71
2023/02/02 00:52:49;;;;;;;;;;;3.80;99.90;;;;;;5038787;28;19968;-71
2023/02/02 00:55:22;;;;;;;;;;;3.70;99.90;;;;;;5058781;28;19931;-71
2023/02/02 00:58:00;;;;;;;;;;;3.70;99.90;;;;;;5031902;28;20014;-72
2023/02/02 01:00:30;;;;;;;;;;;3.80;99.90;;;;;;5083087;28;19924;-72
2023/02/02 01:03:06;;;;;;;;;;;3.80;99.90;;;;;;5091708;28;20299;-71
2023/02/02 01:05:34;;;;;;;;;;;3.80;99.90;;;;;;5042628;28;19931;-72
2023/02/02 01:08:04;;;;;;;;;;;3.80;99.90;;;;;;5066451;28;19932;-71
2023/02/02 01:10:34;;;;;;;;;;;3.80;99.90;;;;;;5047661;28;20395;-71
2023/02/02 01:13:04;;;;;;;;;;;3.80;99.90;;;;;;5055183;28;20148;-71
2023/02/02 01:15:34;;;;;;;;;;;3.80;99.90;;;;;;5041029;28;19924;-71
2023/02/02 01:18:03;;;;;;;;;;;3.80;99.90;;;;;;5059259;28;19925;-72
2023/02/02 01:20:31;;;;;;;;;;;3.80;99.90;;;;;;5040437;28;19932;-72
2023/02/02 01:23:02;;;;;;;;;;;3.70;99.90;;;;;;5041132;28;19932;-71
2023/02/02 01:25:37;;;;;;;;;;;3.70;99.90;;;;;;5057540;28;19932;-71
2023/02/02 01:28:06;;;;;;;;;;;3.70;99.90;;;;;;5030975;28;19924;-73
2023/02/02 01:30:35;;;;;;;;;;;3.70;99.90;;;;;;5054811;28;19952;-70
2023/02/02 01:33:05;;;;;;;;;;;3.70;99.90;;;;;;5066038;28;19972;-71
2023/02/02 01:35:37;;;;;;;;;;;3.70;99.90;;;;;;5069086;28;19959;-72
2023/02/02 01:38:06;;;;;;;;;;;3.70;99.90;;;;;;5052184;28;19970;-71
2023/02/02 01:40:35;;;;;;;;;;;3.70;99.90;;;;;;5062912;28;19924;-71
2023/02/02 01:43:14;;;;;;;;;;;3.70;99.90;;;;;;5051861;28;19924;-71
2023/02/02 01:45:44;;;;;;;;;;;3.70;99.90;;;;;;5046654;28;19925;-71
2023/02/02 01:48:14;;;;;;;;;;;3.70;99.90;;;;;;5067346;28;20453;-71
2023/02/02 01:50:43;;;;;;;;;;;3.70;99.90;;;;;;5046393;28;19930;-71
2023/02/02 01:53:12;;;;;;;;;;;3.60;99.90;;;;;;5065710;28;19970;-71
2023/02/02 01:55:42;;;;;;;;;;;3.60;99.90;;;;;;5048842;28;20023;-71
2023/02/02 01:58:20;;;;;;;;;;;3.60;99.90;;;;;;5054042;28;19925;-71
2023/02/02 02:00:52;;;;;;;;;;;3.60;99.90;;;;;;5047167;28;19924;-71
2023/02/02 02:03:23;;;;;;;;;;;3.50;99.90;;;;;;5046342;28;19928;-71
2023/02/02 02:05:58;;;;;;;;;;;3.50;99.90;;;;;;5048549;28;20020;-71
2023/02/02 02:08:28;;;;;;;;;;;3.50;99.90;;;;;;5068313;28;20323;-71
2023/02/02 02:10:55;;;;;;;;;;;3.50;99.90;;;;;;5062039;28;20134;-71
2023/02/02 02:16:31;;;;;;;;;;;3.50;99.90;;;;;;5055495;28;19932;-71
2023/02/02 02:26:32;;;;;;;;;;;3.60;99.90;;;;;;5053535;28;19928;-71
2023/02/02 02:29:02;;;;;;;;;;;3.60;99.90;;;;;;5051804;28;19925;-71
2023/02/02 02:31:31;;;;;;;;;;;3.60;99.90;;;;;;5067155;28;19931;-71
2023/02/02 02:34:30;;;;;;;;;;;3.60;99.90;;;;;;5047448;28;19924;-70
2023/02/02 02:36:57;;;;;;;;;;;3.60;99.90;;;;;;5052105;28;19935;-71
2023/02/02 02:39:29;;;;;;;;;;;3.60;99.90;;;;;;5046955;28;19979;-71
2023/02/02 02:42:03;;;;;;;;;;;3.70;99.90;;;;;;5057147;28;19964;-71
2023/02/02 02:44:35;;;;;;;;;;;3.60;99.90;;;;;;5046641;28;19924;-71
2023/02/02 02:47:07;;;;;;;;;;;3.70;99.90;;;;;;5050160;28;19928;-72
2023/02/02 02:49:44;;;;;;;;;;;3.60;99.90;;;;;;5049902;28;19935;-71
2023/02/02 02:52:15;;;;;;;;;;;3.60;99.90;;;;;;5059660;28;19924;-71
2023/02/02 02:54:54;;;;;;;;;;;3.70;99.90;;;;;;5052208;28;19960;-72
2023/02/02 02:57:39;;;;;;;;;;;3.70;99.90;;;;;;5063758;28;19924;-71
2023/02/02 03:00:10;;;;;;;;;;;3.70;99.90;;;;;;5049701;28;19924;-71
2023/02/02 03:02:57;;;;;;;;;;;3.60;99.90;;;;;;5054307;28;19931;-71
2023/02/02 03:05:37;;;;;;;;;;;3.60;99.90;;;;;;5071878;28;20318;-71
2023/02/02 03:08:08;;;;;;;;;;;3.70;99.90;;;;;;5089894;28;19924;-72
2023/02/02 03:10:41;;;;;;;;;;;3.70;99.90;;;;;;5071109;28;19955;-72
2023/02/02 03:13:09;;;;;;;;;;;3.70;99.90;;;;;;5083104;28;19924;-71
2023/02/02 03:15:44;;;;;;;;;;;3.60;99.90;;;;;;5054321;28;19995;-71
2023/02/02 03:18:18;;;;;;;;;;;3.70;99.90;;;;;;5055019;28;19928;-71
2023/02/02 03:20:49;;;;;;;;;;;3.70;99.90;;;;;;5071985;28;19932;-71
2023/02/02 03:23:16;;;;;;;;;;;3.70;99.90;;;;;;5053473;28;19947;-71
2023/02/02 03:25:43;;;;;;;;;;;3.70;99.90;;;;;;5061845;28;19974;-71
2023/02/02 03:28:15;;;;;;;;;;;3.70;99.90;;;;;;5054869;28;19925;-71
2023/02/02 03:30:43;;;;;;;;;;;3.70;99.90;;;;;;5039398;28;19963;-71
2023/02/02 03:33:15;;;;;;;;;;;3.70;99.90;;;;;;5038409;28;20306;-71
2023/02/02 03:35:47;;;;;;;;;;;3.70;99.90;;;;;;5049528;28;19935;-71
2023/02/02 03:38:19;;;;;;;;;;;3.60;99.90;;;;;;5054157;28;19924;-70
2023/02/02 03:40:45;;;;;;;;;;;3.70;99.90;;;;;;5062122;28;20371;-71
2023/02/02 03:43:21;;;;;;;;;;;3.70;99.90;;;;;;5046740;28;19925;-71
2023/02/02 03:45:57;;;;;;;;;;;3.70;99.90;;;;;;5065747;28;19924;-71
2023/02/02 03:48:29;;;;;;;;;;;3.70;99.90;;;;;;5062673;28;19931;-71
2023/02/02 03:51:19;;;;;;;;;;;3.70;99.90;;;;;;5061327;28;19978;-72
2023/02/02 03:53:51;;;;;;;;;;;3.70;99.90;;;;;;5076199;28;19931;-72
2023/02/02 03:56:22;;;;;;;;;;;3.80;99.90;;;;;;5073225;28;20299;-71
2023/02/02 03:58:54;;;;;;;;;;;3.80;99.90;;;;;;5066686;28;20658;-71
2023/02/02 04:01:27;;;;;;;;;;;3.70;99.90;;;;;;5063372;28;19931;-71
2023/02/02 04:03:59;;;;;;;;;;;3.70;99.90;;;;;;5064307;28;19935;-70
2023/02/02 04:06:31;;;;;;;;;;;3.80;99.90;;;;;;5062511;28;19932;-70
2023/02/02 04:09:02;;;;;;;;;;;3.70;99.90;;;;;;5048446;28;20397;-70
2023/02/02 04:11:34;;;;;;;;;;;3.70;99.90;;;;;;5064449;28;19924;-71
2023/02/02 04:14:01;;;;;;;;;;;3.70;99.90;;;;;;5079870;28;19932;-71
2023/02/02 04:16:35;;;;;;;;;;;3.70;99.90;;;;;;5081282;28;19928;-71
2023/02/02 04:19:07;;;;;;;;;;;3.70;99.90;;;;;;5064201;28;19928;-71
2023/02/02 04:21:39;;;;;;;;;;;3.80;99.90;;;;;;5053929;28;19931;-71
2023/02/02 04:24:09;;;;;;;;;;;3.80;99.90;;;;;;5055018;28;19924;-71
2023/02/02 04:26:41;;;;;;;;;;;3.80;99.90;;;;;;5045868;28;19929;-70
2023/02/02 04:29:12;;;;;;;;;;;3.80;99.90;;;;;;5089317;28;19932;-71
2023/02/02 04:31:39;;;;;;;;;;;3.80;99.90;;;;;;5069281;28;19970;-72
2023/02/02 04:34:11;;;;;;;;;;;3.80;99.90;;;;;;5075420;28;19928;-71
2023/02/02 04:36:43;;;;;;;;;;;3.80;99.90;;;;;;5066617;28;20009;-71
2023/02/02 04:39:14;;;;;;;;;;;3.70;99.90;;;;;;5050502;28;19931;-71
2023/02/02 04:41:46;;;;;;;;;;;3.70;99.90;;;;;;5060695;28;20295;-71
2023/02/02 04:44:14;;;;;;;;;;;3.70;99.90;;;;;;5057826;28;19928;-71
2023/02/02 04:46:46;;;;;;;;;;;3.70;99.90;;;;;;5051956;28;19946;-73
2023/02/02 04:49:18;;;;;;;;;;;3.70;99.90;;;;;;5065644;28;20628;-71
2023/02/02 04:51:44;;;;;;;;;;;3.70;99.90;;;;;;5063581;28;19932;-72
2023/02/02 04:54:11;;;;;;;;;;;3.70;99.90;;;;;;5068952;28;19981;-71
2023/02/02 04:56:43;;;;;;;;;;;3.70;99.90;;;;;;5055415;28;20019;-72
2023/02/02 04:59:14;;;;;;;;;;;3.70;99.90;;;;;;5087269;28;19936;-71
2023/02/02 05:01:47;;;;;;;;;;;3.80;99.90;;;;;;5078202;28;20302;-71
2023/02/02 05:04:18;;;;;;;;;;;3.80;99.90;;;;;;5064847;28;19925;-71
2023/02/02 05:06:45;;;;;;;;;;;3.80;99.90;;;;;;5068851;28;19924;-71
2023/02/02 05:09:17;;;;;;;;;;;3.80;99.90;;;;;;5057557;28;19924;-70
2023/02/02 05:11:48;;;;;;;;;;;3.80;99.90;;;;;;5065217;28;19938;-71
2023/02/02 05:14:17;;;;;;;;;;;3.90;99.90;;;;;;5077821;28;19928;-72
2023/02/02 05:16:43;;;;;;;;;;;3.90;99.90;;;;;;5074254;28;20386;-70
2023/02/02 05:19:15;;;;;;;;;;;3.90;99.90;;;;;;5060032;28;19931;-71
2023/02/02 05:21:48;;;;;;;;;;;3.90;99.90;;;;;;5046967;28;19983;-70
2023/02/02 05:24:15;;;;;;;;;;;3.90;99.90;;;;;;5077716;28;20307;-71
2023/02/02 05:26:47;;;;;;;;;;;3.90;99.90;;;;;;5081247;28;20349;-71
2023/02/02 05:29:14;;;;;;;;;;;3.90;99.90;;;;;;5083161;28;20450;-71
2023/02/02 05:31:44;;;;;;;;;;;3.90;99.90;;;;;;5045767;28;19928;-71
2023/02/02 05:34:17;;;;;;;;;;;3.90;99.90;;;;;;5062871;28;19940;-72
2023/02/02 05:36:48;;;;;;;;;;;3.90;99.90;;;;;;5044478;28;19925;-72
2023/02/02 05:39:18;;;;;;;;;;;3.90;99.90;;;;;;5045972;28;19932;-70
2023/02/02 05:41:46;;;;;;;;;;;3.90;99.90;;;;;;5054972;28;19978;-71
2023/02/02 05:44:16;;;;;;;;;;;3.90;99.90;;;;;;5047422;28;19971;-72
2023/02/02 05:46:49;;;;;;;;;;;3.90;99.90;;;;;;5054034;28;20284;-71
2023/02/02 05:49:29;;;;;;;;;;;3.80;99.90;;;;;;5056503;28;19932;-71
2023/02/02 05:52:01;;;;;;;;;;;3.80;99.90;;;;;;5077756;28;19924;-71
2023/02/02 05:54:33;;;;;;;;;;;3.80;99.90;;;;;;5064173;28;19935;-71
2023/02/02 05:57:08;;;;;;;;;;;3.80;99.90;;;;;;5065499;28;20004;-71
2023/02/02 05:59:41;;;;;;;;;;;3.70;99.90;;;;;;5043126;28;19924;-72
2023/02/02 06:02:12;;;;;;;;;;;3.80;99.90;;;;;;5051025;28;19924;-72
2023/02/02 06:04:41;;;;;;;;;;;3.70;99.90;;;;;;5087414;28;19968;-72
2023/02/02 06:07:12;;;;;;;;;;;3.80;99.90;;;;;;5085050;28;20395;-71
2023/02/02 06:09:44;;;;;;;;;;;3.80;99.90;;;;;;5054772;28;19935;-72
2023/02/02 06:12:17;;;;;;;;;;;3.80;99.90;;;;;;5031232;28;19924;-71
2023/02/02 06:14:46;;;;;;;;;;;3.80;99.90;;;;;;5043594;28;19932;-69
2023/02/02 06:17:24;;;;;;;;;;;3.80;99.90;;;;;;5071026;28;19931;-71
2023/02/02 06:19:54;;;;;;;;;;;3.80;99.90;;;;;;5057781;28;19955;-72
2023/02/02 06:22:29;;;;;;;;;;;3.70;99.90;;;;;;5076290;28;20275;-71
2023/02/02 06:24:59;;;;;;;;;;;3.70;99.90;;;;;;5066104;28;19925;-73
2023/02/02 06:27:29;;;;;;;;;;;3.80;99.90;;;;;;5060152;28;19982;-71
2023/02/02 06:29:58;;;;;;;;;;;3.80;99.90;;;;;;5082104;28;20405;-71
2023/02/02 06:32:43;;;;;;;;;;;3.80;99.90;;;;;;5048896;28;19974;-71
2023/02/02 06:35:14;;;;;;;;;;;3.70;99.90;;;;;;5085568;28;19935;-71
2023/02/02 06:37:49;;;;;;;;;;;3.70;99.90;;;;;;5069794;28;19931;-71
2023/02/02 06:40:21;;;;;;;;;;;3.80;99.90;;;;;;5100052;28;19924;-71
2023/02/02 06:42:57;;;;;;;;;;;3.80;99.90;;;;;;5074907;28;20472;-70
2023/02/02 06:45:38;;;;;;;;;;;3.70;99.90;;;;;;5085313;28;20398;-71
2023/02/02 06:48:14;;;;;;;;;;;3.80;99.90;;;;;;5087674;28;19928;-71
2023/02/02 06:50:43;;;;;;;;;;;3.70;99.90;;;;;;5069550;28;19999;-71
2023/02/02 06:53:21;;;;;;;;;;;3.70;99.90;;;;;;5087341;28;20040;-71
2023/02/02 06:56:12;;;;;;;;;;;3.70;99.90;;;;;;5060734;28;19930;-71
2023/02/02 06:58:41;;;;;;;;;;;3.70;99.90;;;;;;5061660;28;20421;-73
2023/02/02 07:01:14;;;;;;;;;;;3.80;99.90;;;;;;5057866;28;19963;-71
2023/02/02 07:03:47;;;;;;;;;;;3.80;99.90;;;;;;5063261;28;19930;-73
2023/02/02 07:06:25;;;;;;;;;;;3.80;99.90;;;;;;5058660;28;19959;-71
2023/02/02 07:08:58;;;;;;;;;;;3.80;99.90;;;;;;5068086;28;19935;-72
2023/02/02 07:11:27;;;;;;;;;;;3.80;99.90;;;;;;5063462;28;19967;-71
2023/02/02 07:13:57;;;;;;;;;;;3.80;99.90;;;;;;5041320;28;20011;-71
2023/02/02 07:16:26;;;;;;;;;;;3.80;99.90;;;;;;5081308;28;19924;-71
2023/02/02 07:18:56;;;;;;;;;;;3.80;99.90;;;;;;5040841;28;19939;-70
2023/02/02 07:21:39;;;;;;;;;;;3.80;99.90;;;;;;5086213;28;19930;-70
2023/02/02 07:24:14;;;;;;;;;;;3.80;99.90;;;;;;5067383;28;19924;-71
2023/02/02 07:26:48;;;;;;;;;;;3.90;99.90;;;;;;5070266;28;19929;-72
2023/02/02 07:29:18;;;;;;;;;;;3.90;99.90;;;;;;5066509;28;19932;-70
2023/02/02 07:31:51;;;;;;;;;;;3.90;99.90;;;;;;5060740;28;19931;-71
2023/02/02 07:34:25;;;;;;;;;;;3.90;99.90;;;;;;5053050;28;20272;-71
2023/02/02 07:37:12;;;;;;;;;;;3.90;99.90;;;;;;5078330;28;19931;-72
2023/02/02 07:40:00;;;;;;;;;;;3.90;99.90;;;;;;5059742;28;19932;-72
2023/02/02 07:42:30;;;;;;;;;;;3.90;99.90;;;;;;5055227;28;19938;-71
2023/02/02 07:45:14;;;;;;;;;;;3.80;99.90;;;;;;5053663;28;19924;-71
2023/02/02 07:47:44;;;;;;;;;;;3.80;99.90;;;;;;5070641;28;20365;-71
2023/02/02 07:50:18;;;;;;;;;;;3.80;99.90;;;;;;5064984;28;19925;-71
2023/02/02 07:53:13;;;;;;;;;;;3.80;99.90;;;;;;5061354;28;19929;-71
2023/02/02 07:56:20;;;;;;;;;;;3.80;99.90;;;;;;5081583;28;19912;-71
2023/02/02 07:58:58;;;;;;;;;;;3.70;99.90;;;;;;5054773;28;19928;-72
2023/02/02 08:01:56;;;;;;;;;;;3.60;99.90;;;;;;5062718;28;19931;-71
2023/02/02 08:04:40;;;;;;;;;;;3.60;99.90;;;;;;5071515;28;19925;-71
2023/02/02 08:07:34;;;;;;;;;;;3.50;99.90;;;;;;5081180;28;19928;-71
2023/02/02 08:10:05;;;;;;;;;;;3.50;99.90;;;;;;5067214;28;20358;-72
2023/02/02 08:12:36;;;;;;;;;;;3.50;99.90;;;;;;5053072;28;19924;-71
2023/02/02 08:15:12;;;;;;;;;;;3.50;99.90;;;;;;5060322;28;20493;-71
2023/02/02 08:17:48;;;;;;;;;;;3.50;99.90;;;;;;5054089;28;19924;-72
2023/02/02 08:20:21;;;;;;;;;;;3.50;99.90;;;;;;5048701;28;20384;-71
2023/02/02 08:22:54;;;;;;;;;;;3.50;99.90;;;;;;5071336;28;19995;-71
2023/02/02 08:25:24;;;;;;;;;;;3.50;99.90;;;;;;5086968;28;20371;-71
2023/02/02 08:28:00;;;;;;;;;;;3.50;99.90;;;;;;5061080;28;20632;-72
2023/02/02 08:30:30;;;;;;;;;;;3.50;99.90;;;;;;5067344;28;19928;-72
2023/02/02 08:33:04;;;;;;;;;;;3.50;99.90;;;;;;5061254;28;19994;-72
2023/02/02 08:35:39;;;;;;;;;;;3.50;99.90;;;;;;5057743;28;19924;-71
2023/02/02 08:38:13;;;;;;;;;;;3.50;99.90;;;;;;5097031;28;20018;-71
2023/02/02 08:40:53;;;;;;;;;;;3.40;99.90;;;;;;5062407;28;20349;-72
2023/02/02 08:43:24;;;;;;;;;;;3.50;99.90;;;;;;5056241;28;20395;-72
2023/02/02 08:45:59;;;;;;;;;;;3.50;99.90;;;;;;5045260;28;20387;-71
2023/02/02 08:48:51;;;;;;;;;;;3.50;99.90;;;;;;5075612;28;19931;-71
2023/02/02 08:51:27;;;;;;;;;;;3.50;99.90;;;;;;5066602;28;19919;-71
2023/02/02 08:54:02;;;;;;;;;;;3.60;99.90;;;;;;5110487;28;19924;-72
2023/02/02 08:56:36;;;;;;;;;;;3.60;99.90;;;;;;5052846;28;19928;-72
2023/02/02 08:59:14;;;;;;;;;;;3.70;99.90;;;;;;5070890;28;20326;-72
2023/02/02 09:01:43;;;;;;;;;;;3.70;99.90;;;;;;5040857;28;19931;-72
2023/02/02 09:04:17;;;;;;;;;;;3.80;99.90;;;;;;5055059;28;20023;-72
2023/02/02 09:06:48;;;;;;;;;;;3.80;99.90;;;;;;5075067;28;19969;-72
2023/02/02 09:10:04;;;;;;;;;;;3.80;99.90;;;;;;5068622;28;20029;-72
2023/02/02 09:12:37;;;;;;;;;;;3.80;99.90;;;;;;5075509;28;19976;-71
2023/02/02 09:15:43;;;;;;;;;;;3.80;99.90;;;;;;5065215;28;19930;-71
2023/02/02 09:18:21;;;;;;;;;;;3.80;99.90;;;;;;5003586;28;20015;-73
2023/02/02 09:20:50;;;;;;;;;;;3.90;99.90;;;;;;4983873;28;19969;-72
2023/02/02 09:23:21;;;;;;;;;;;3.90;99.90;;;;;;4967177;28;19926;-72
2023/02/02 09:25:56;;;;;;;;;;;3.90;99.90;;;;;;5004591;28;19957;-71
2023/02/02 09:28:27;;;;;;;;;;;4.00;99.90;;;;;;4991780;28;19925;-71
2023/02/02 09:31:08;;;;;;;;;;;4.00;99.90;;;;;;4959045;28;19925;-73
2023/02/02 09:33:40;;;;;;;;;;;4.00;99.90;;;;;;4979058;28;19926;-72
2023/02/02 09:36:25;;;;;;;;;;;4.00;99.90;;;;;;5005016;28;20417;-72
2023/02/02 09:38:55;;;;;;;;;;;4.00;99.90;;;;;;5040722;28;19935;-72
2023/02/02 09:41:32;;;;;;;;;;;4.00;99.90;;;;;;5055016;28;19967;-72
2023/02/02 09:44:07;;;;;;;;;;;4.10;99.90;;;;;;5057036;28;19925;-71
2023/02/02 09:46:54;;;;;;;;;;;4.10;99.90;;;;;;5083650;28;19924;-71
2023/02/02 09:49:26;;;;;;;;;;;4.10;99.90;;;;;;5051384;28;20015;-72
2023/02/02 09:52:02;;;;;;;;;;;4.20;99.90;;;;;;5046127;28;19972;-73
2023/02/02 09:54:46;;;;;;;;;;;4.20;99.90;;;;;;5074466;28;19954;-71
2023/02/02 09:57:27;;;;;;;;;;;4.20;99.90;;;;;;5060515;28;19946;-71
2023/02/02 10:00:04;;;;;;;;;;;4.20;99.90;;;;;;5048595;28;20019;-72
2023/02/02 10:02:41;;;;;;;;;;;4.20;99.90;;;;;;5082192;28;19999;-71
2023/02/02 10:05:20;;;;;;;;;;;4.30;99.90;;;;;;5043984;28;19925;-73
2023/02/02 10:08:00;;;;;;;;;;;4.30;99.90;;;;;;5049473;28;20031;-72
2023/02/02 10:11:00;;;;;;;;;;;4.40;99.90;;;;;;5052833;28;20279;-71
2023/02/02 10:13:52;;;;;;;;;;;4.40;99.90;;;;;;5067445;28;20019;-71
2023/02/02 10:16:49;;;;;;;;;;;4.40;99.90;;;;;;5084598;28;19931;-70
2023/02/02 10:19:28;;;;;;;;;;;4.50;99.90;;;;;;5052115;28;19928;-73
2023/02/02 10:25:11;;;;;;;;;;;4.50;99.90;;;;;;5061571;28;19928;-70
2023/02/02 10:28:11;;;;;;;;;;;4.50;99.90;;;;;;5060096;28;19924;-70
2023/02/02 10:30:58;;;;;;;;;;;4.50;99.90;;;;;;5073869;28;20358;-71
2023/02/02 10:33:44;;;;;;;;;;;4.40;99.90;;;;;;5081646;28;20002;-71
2023/02/02 10:36:19;;;;;;;;;;;4.50;99.90;;;;;;5049942;28;19924;-70
2023/02/02 10:39:10;;;;;;;;;;;4.50;99.90;;;;;;5055727;28;19932;-71
2023/02/02 10:41:58;;;;;;;;;;;4.50;99.90;;;;;;5064553;28;19960;-71
2023/02/02 10:44:43;;;;;;;;;;;4.60;99.90;;;;;;5056332;28;20306;-71
2023/02/02 10:47:15;;;;;;;;;;;4.60;99.90;;;;;;5054816;28;20306;-71
2023/02/02 10:49:51;;;;;;;;;;;4.70;99.90;;;;;;5041022;28;19924;-71
2023/02/02 10:52:28;;;;;;;;;;;4.60;99.90;;;;;;5069576;28;20371;-71
2023/02/02 10:55:00;;;;;;;;;;;4.70;99.90;;;;;;5058977;28;19924;-71
2023/02/02 10:57:38;;;;;;;;;;;4.70;99.90;;;;;;5069204;28;19978;-71
2023/02/02 11:00:20;;;;;;;;;;;4.70;99.90;;;;;;5057402;28;19932;-71
2023/02/02 11:02:57;;;;;;;;;;;4.70;99.90;;;;;;5055477;28;19928;-71
2023/02/02 11:09:03;;;;;;;;;;;4.80;99.90;;;;;;5091389;28;19927;-71
2023/02/02 11:11:36;;;;;;;;;;;4.80;99.90;;;;;;5074078;28;19924;-72
2023/02/02 11:14:27;;;;;;;;;;;4.80;99.90;;;;;;5038708;28;20311;-71
2023/02/02 11:17:02;;;;;;;;;;;4.80;99.90;;;;;;5068543;28;19925;-70
2023/02/02 11:19:33;;;;;;;;;;;4.80;99.90;;;;;;5047021;28;19930;-70
2023/02/02 11:22:06;;;;;;;;;;;4.80;99.90;;;;;;5066422;28;20457;-72
2023/02/02 11:24:47;;;;;;;;;;;4.80;99.90;;;;;;5070087;28;20015;-70
2023/02/02 11:27:34;;;;;;;;;;;4.80;99.90;;;;;;5042963;28;19994;-72
2023/02/02 11:30:11;;;;;;;;;;;4.90;99.90;;;;;;5051794;28;20406;-71
2023/02/02 11:32:46;;;;;;;;;;;4.90;99.90;;;;;;5060488;28;19932;-71
2023/02/02 11:35:18;;;;;;;;;;;4.90;99.90;;;;;;5051661;28;19932;-72
2023/02/02 11:37:52;;;;;;;;;;;4.80;99.90;;;;;;5038573;28;19960;-73
2023/02/02 11:41:08;;;;;;;;;;;4.80;99.90;;;;;;5075148;28;19931;-71
2023/02/02 11:43:51;;;;;;;;;;;4.80;99.90;;;;;;5060819;28;19925;-71
2023/02/02 11:46:23;;;;;;;;;;;4.80;99.90;;;;;;5071707;28;19954;-72
2023/02/02 11:48:58;;;;;;;;;;;4.80;99.90;;;;;;5054908;28;19978;-71
2023/02/02 11:51:31;;;;;;;;;;;4.80;99.90;;;;;;5054624;28;19932;-72
2023/02/02 11:54:18;;;;;;;;;;;4.70;99.90;;;;;;5038163;28;19924;-71
2023/02/02 11:56:54;;;;;;;;;;;4.80;99.90;;;;;;5042259;28;20019;-71
2023/02/02 11:59:33;;;;;;;;;;;4.80;99.90;;;;;;5054853;28;20094;-71
2023/02/02 12:02:19;;;;;;;;;;;4.80;99.90;;;;;;5063927;28;19924;-71
2023/02/02 12:04:49;;;;;;;;;;;4.80;99.90;;;;;;5053545;28;20339;-72
2023/02/02 12:07:31;;;;;;;;;;;4.80;99.90;;;;;;5061688;28;19932;-71
2023/02/02 12:10:18;;;;;;;;;;;4.80;99.90;;;;;;5061833;28;19924;-72
2023/02/02 12:12:56;;;;;;;;;;;4.80;99.90;;;;;;5064780;28;19928;-71
2023/02/02 12:15:50;;;;;;;;;;;4.80;99.90;;;;;;5061530;28;19924;-70
2023/02/02 12:18:40;;;;;;;;;;;4.80;99.90;;;;;;5075014;28;19931;-73
2023/02/02 12:21:23;;;;;;;;;;;4.80;99.90;;;;;;5054655;28;19924;-72
2023/02/02 12:24:02;;;;;;;;;;;4.80;99.90;;;;;;5086378;28;19924;-73
2023/02/02 12:26:32;;;;;;;;;;;4.80;99.90;;;;;;5050400;28;20413;-74
2023/02/02 12:29:05;;;;;;;;;;;4.70;99.90;;;;;;5038501;28;19931;-73
2023/02/02 12:31:59;;;;;;;;;;;4.70;99.90;;;;;;5075811;28;19928;-72
2023/02/02 12:34:49;;;;;;;;;;;4.80;99.90;;;;;;5057822;28;19924;-71
2023/02/02 12:37:58;;;;;;;;;;;4.70;99.90;;;;;;5083105;28;19932;-74
2023/02/02 12:40:50;;;;;;;;;;;4.70;99.90;;;;;;5054075;28;19935;-72
2023/02/02 12:43:38;;;;;;;;;;;4.70;99.90;;;;;;5060069;28;20460;-74
2023/02/02 12:46:26;;;;;;;;;;;4.60;99.90;;;;;;5058040;28;20382;-73
2023/02/02 12:49:19;;;;;;;;;;;4.60;99.90;;;;;;5047734;28;20047;-73
2023/02/02 12:52:11;;;;;;;;;;;4.60;99.90;;;;;;5052944;28;19979;-73
2023/02/02 12:54:55;;;;;;;;;;;4.60;99.90;;;;;;5063366;28;19968;-71
2023/02/02 12:57:24;;;;;;;;;;;4.60;99.90;;;;;;5054520;28;19972;-72
2023/02/02 13:00:01;;;;;;;;;;;4.50;99.90;;;;;;5047558;28;19989;-72
2023/02/02 13:02:43;;;;;;;;;;;4.50;99.90;;;;;;5056653;28;19939;-72
2023/02/02 13:05:27;;;;;;;;;;;4.50;99.90;;;;;;5056654;28;19929;-75
2023/02/02 13:08:10;;;;;;;;;;;4.50;99.90;;;;;;5057684;28;19935;-75
2023/02/02 13:10:44;;;;;;;;;;;4.40;99.90;;;;;;5053920;28;20022;-72
2023/02/02 13:13:38;;;;;;;;;;;4.40;99.90;;;;;;5064417;28;19932;-74
2023/02/02 13:16:10;;;;;;;;;;;4.50;99.90;;;;;;5066310;28;19962;-73
2023/02/02 13:19:02;;;;;;;;;;;4.50;99.90;;;;;;5085867;28;20030;-73
2023/02/02 13:21:34;;;;;;;;;;;4.50;99.90;;;;;;5060836;28;19924;-73
2023/02/02 13:24:11;;;;;;;;;;;4.50;99.90;;;;;;5077966;28;20011;-73
2023/02/02 13:26:44;;;;;;;;;;;4.50;99.90;;;;;;5051646;28;20340;-74
2023/02/02 13:29:47;;;;;;;;;;;4.50;99.90;;;;;;5053916;28;19931;-73
2023/02/02 13:32:36;;;;;;;;;;;4.60;99.90;;;;;;5037857;28;19928;-74
2023/02/02 13:35:15;;;;;;;;;;;4.60;99.90;;;;;;5054520;28;20301;-74
2023/02/02 13:37:56;;;;;;;;;;;4.60;99.90;;;;;;5071206;28;20485;-74
2023/02/02 13:40:27;;;;;;;;;;;4.60;99.90;;;;;;5056949;28;20295;-73
2023/02/02 13:43:14;;;;;;;;;;;4.60;99.90;;;;;;5053620;28;20396;-73
2023/02/02 13:45:54;;;;;;;;;;;4.60;99.90;;;;;;5052585;28;20579;-72
2023/02/02 13:48:31;;;;;;;;;;;4.50;99.90;;;;;;5062462;28;19954;-74
2023/02/02 13:51:12;;;;;;;;;;;4.50;99.90;;;;;;5061416;28;20017;-74
2023/02/02 13:53:54;;;;;;;;;;;4.50;99.90;;;;;;5065181;28;19928;-74
2023/02/02 13:56:30;;;;;;;;;;;4.50;99.90;;;;;;5071374;28;20329;-74
2023/02/02 13:59:27;;;;;;;;;;;4.50;99.90;;;;;;5050220;28;19925;-74
2023/02/02 14:01:57;;;;;;;;;;;4.60;99.90;;;;;;5068624;28;20414;-73
2023/02/02 14:04:30;;;;;;;;;;;4.50;99.90;;;;;;5062281;28;20268;-74
2023/02/02 14:07:03;;;;;;;;;;;4.50;99.90;;;;;;5053023;28;20623;-74
2023/02/02 14:09:32;;;;;;;;;;;4.50;99.90;;;;;;5068539;28;19951;-74
2023/02/02 14:12:06;;;;;;;;;;;4.50;99.90;;;;;;5084178;28;19929;-74
2023/02/02 14:14:38;;;;;;;;;;;4.50;99.90;;;;;;5049726;28;19924;-73
2023/02/02 14:17:16;;;;;;;;;;;4.50;99.90;;;;;;5053624;28;19931;-74
2023/02/02 14:19:50;;;;;;;;;;;4.50;99.90;;;;;;5051664;28;20011;-74
2023/02/02 14:22:39;;;;;;;;;;;4.50;99.90;;;;;;5063205;28;20016;-73
2023/02/02 14:25:27;;;;;;;;;;;4.40;99.90;;;;;;5068484;28;19925;-73
2023/02/02 14:27:58;;;;;;;;;;;4.40;99.90;;;;;;5064284;28;19928;-74
2023/02/02 14:30:31;;;;;;;;;;;4.40;99.90;;;;;;5052819;28;19924;-74
2023/02/02 14:33:18;;;;;;;;;;;4.40;99.90;;;;;;5048182;28;19997;-73
2023/02/02 14:35:54;;;;;;;;;;;4.40;99.90;;;;;;5060755;28;19939;-74
2023/02/02 14:38:31;;;;;;;;;;;4.30;99.90;;;;;;5071432;28;19920;-72
2023/02/02 14:41:12;;;;;;;;;;;4.40;99.90;;;;;;5077162;28;20045;-72
2023/02/02 14:44:33;;;;;;;;;;;4.40;99.90;;;;;;5076716;28;19931;-74
2023/02/02 14:47:23;;;;;;;;;;;4.40;99.90;;;;;;5052836;28;20290;-74
2023/02/02 14:49:56;;;;;;;;;;;4.30;99.90;;;;;;5058802;28;19964;-73
2023/02/02 14:52:27;;;;;;;;;;;4.30;99.90;;;;;;5046325;28;19925;-75
2023/02/02 14:55:01;;;;;;;;;;;4.30;99.90;;;;;;5069974;28;20499;-74
2023/02/02 14:57:34;;;;;;;;;;;4.30;99.90;;;;;;5065975;28;19935;-72
2023/02/02 15:00:04;;;;;;;;;;;4.20;99.90;;;;;;5064810;28;19928;-74
2023/02/02 15:02:35;;;;;;;;;;;4.20;99.90;;;;;;5066385;28;19924;-74
2023/02/02 15:05:37;;;;;;;;;;;4.20;99.90;;;;;;5051738;28;20335;-74
2023/02/02 15:08:12;;;;;;;;;;;4.20;99.90;;;;;;5033522;28;20400;-74
2023/02/02 15:10:46;;;;;;;;;;;4.30;99.90;;;;;;5052648;28;19924;-72
2023/02/02 15:13:25;;;;;;;;;;;4.30;99.90;;;;;;5065408;28;19956;-74
2023/02/02 15:16:09;;;;;;;;;;;4.20;99.90;;;;;;5081096;28;20356;-74
2023/02/02 15:21:53;;;;;;;;;;;4.20;99.90;;;;;;5064236;28;20345;-73
2023/02/02 15:24:25;;;;;;;;;;;4.20;99.90;;;;;;5082021;28;19924;-71
2023/02/02 15:26:57;;;;;;;;;;;4.20;99.90;;;;;;5070262;28;19924;-73
2023/02/02 15:29:53;;;;;;;;;;;4.20;99.90;;;;;;5052160;28;19932;-73
2023/02/02 15:32:23;;;;;;;;;;;4.20;99.90;;;;;;5040781;28;20375;-73
2023/02/02 15:35:00;;;;;;;;;;;4.30;99.90;;;;;;5059732;28;20011;-73
2023/02/02 15:37:40;;;;;;;;;;;4.20;99.90;;;;;;5067009;28;19967;-74
2023/02/02 15:40:20;;;;;;;;;;;4.20;99.90;;;;;;5063034;28;19935;-75
2023/02/02 15:43:03;;;;;;;;;;;4.20;99.90;;;;;;5064283;28;19932;-73
2023/02/02 15:45:46;;;;;;;;;;;4.20;99.90;;;;;;5062515;28;19928;-74
2023/02/02 15:48:28;;;;;;;;;;;4.20;99.90;;;;;;5057922;28;19932;-74